sensor_id;sensor_type;location;lat;lon;timestamp;pressure;altitude;pressure_sealevel;temperature;humidity
29907;BME280;16776;50.958;10.994;2023-08-06T00:00:53;97712.59;;;15.37;100.00
29907;BME280;16776;50.958;10.994;2023-08-06T00:03:22;97716.78;;;15.39;100.00
29907;BME280;16776;50.958;10.994;2023-08-06T00:05:48;97713.63;;;15.34;100.00
29907;BME280;16776;50.958;10.994;2023-08-06T00:08:15;97705.94;;;15.33;100.00
29907;BME280;16776;50.958;10.994;2023-08-06T00:10:43;97703.25;;;15.34;100.00
29907;BME280;16776;50.958;10.994;2023-08-06T00:13:09;97693.09;;;15.30;100.00
29907;BME280;16776;50.958;10.994;2023-08-06T00:15:36;97693.09;;;15.30;100.00
29907;BME280;16776;50.958;10.994;2023-08-06T00:18:03;97687.09;;;15.29;100.00
29907;BME280;16776;50.958;10.994;2023-08-06T00:20:29;97684.47;;;15.29;100.00
29907;BME280;16776;50.958;10.994;2023-08-06T00:22:56;97671.63;;;15.28;100.00
29907;BME280;16776;50.958;10.994;2023-08-06T00:25:23;97667.44;;;15.25;100.00
29907;BME280;16776;50.958;10.994;2023-08-06T00:27:51;97674.31;;;15.26;100.00
29907;BME280;16776;50.958;10.994;2023-08-06T00:30:17;97662.56;;;15.21;100.00
29907;BME280;16776;50.958;10.994;2023-08-06T00:32:44;97654.09;;;15.17;100.00
29907;BME280;16776;50.958;10.994;2023-08-06T00:35:10;97657.81;;;15.13;100.00
29907;BME280;16776;50.958;10.994;2023-08-06T00:37:38;97648.47;;;15.11;100.00
29907;BME280;16776;50.958;10.994;2023-08-06T00:40:06;97637.00;;;15.00;100.00
29907;BME280;16776;50.958;10.994;2023-08-06T00:42:33;97649.59;;;15.07;100.00
29907;BME280;16776;50.958;10.994;2023-08-06T00:45:01;97645.41;;;15.04;100.00
29907;BME280;16776;50.958;10.994;2023-08-06T00:47:28;97634.47;;;14.99;100.00
29907;BME280;16776;50.958;10.994;2023-08-06T00:49:55;97642.47;;;14.96;100.00
29907;BME280;16776;50.958;10.994;2023-08-06T00:52:21;97640.88;;;14.93;100.00
29907;BME280;16776;50.958;10.994;2023-08-06T00:54:48;97647.81;;;14.93;100.00
29907;BME280;16776;50.958;10.994;2023-08-06T00:57:16;97641.88;;;14.91;100.00
29907;BME280;16776;50.958;10.994;2023-08-06T00:59:44;97636.69;;;14.91;100.00
29907;BME280;16776;50.958;10.994;2023-08-06T01:02:12;97628.00;;;14.92;100.00
29907;BME280;16776;50.958;10.994;2023-08-06T01:04:38;97634.31;;;14.88;100.00
29907;BME280;16776;50.958;10.994;2023-08-06T01:07:13;97632.09;;;14.96;100.00
29907;BME280;16776;50.958;10.994;2023-08-06T01:09:51;97620.06;;;14.95;100.00
29907;BME280;16776;50.958;10.994;2023-08-06T01:12:30;97618.38;;;14.94;100.00
29907;BME280;16776;50.958;10.994;2023-08-06T01:15:04;97622.94;;;14.90;100.00
29907;BME280;16776;50.958;10.994;2023-08-06T01:17:35;97619.88;;;14.84;100.00
29907;BME280;16776;50.958;10.994;2023-08-06T01:20:03;97620.22;;;14.78;100.00
29907;BME280;16776;50.958;10.994;2023-08-06T01:22:31;97617.66;;;14.78;100.00
29907;BME280;16776;50.958;10.994;2023-08-06T01:24:57;97622.25;;;14.73;100.00
29907;BME280;16776;50.958;10.994;2023-08-06T01:27:28;97625.59;;;14.75;100.00
29907;BME280;16776;50.958;10.994;2023-08-06T01:30:02;97629.00;;;14.75;100.00
29907;BME280;16776;50.958;10.994;2023-08-06T01:32:32;97624.28;;;14.68;100.00
29907;BME280;16776;50.958;10.994;2023-08-06T01:35:00;97624.56;;;14.63;100.00
29907;BME280;16776;50.958;10.994;2023-08-06T01:37:28;97617.78;;;14.60;100.00
29907;BME280;16776;50.958;10.994;2023-08-06T01:39:57;97622.88;;;14.62;100.00
29907;BME280;16776;50.958;10.994;2023-08-06T01:42:23;97618.06;;;14.56;100.00
29907;BME280;16776;50.958;10.994;2023-08-06T01:44:50;97614.81;;;14.52;100.00
29907;BME280;16776;50.958;10.994;2023-08-06T01:47:17;97608.91;;;14.50;100.00
29907;BME280;16776;50.958;10.994;2023-08-06T01:49:43;97615.91;;;14.48;100.00
29907;BME280;16776;50.958;10.994;2023-08-06T01:52:10;97611.78;;;14.46;100.00
29907;BME280;16776;50.958;10.994;2023-08-06T01:54:36;97602.38;;;14.43;100.00
29907;BME280;16776;50.958;10.994;2023-08-06T01:57:05;97610.91;;;14.45;100.00
29907;BME280;16776;50.958;10.994;2023-08-06T01:59:32;97604.31;;;14.40;100.00
29907;BME280;16776;50.958;10.994;2023-08-06T02:02:00;97597.47;;;14.39;100.00
29907;BME280;16776;50.958;10.994;2023-08-06T02:04:27;97594.97;;;14.37;100.00
29907;BME280;16776;50.958;10.994;2023-08-06T02:06:53;97581.25;;;14.35;100.00
29907;BME280;16776;50.958;10.994;2023-08-06T02:09:20;97570.06;;;14.35;100.00
29907;BME280;16776;50.958;10.994;2023-08-06T02:11:46;97573.56;;;14.34;100.00
29907;BME280;16776;50.958;10.994;2023-08-06T02:14:14;97569.22;;;14.34;100.00
29907;BME280;16776;50.958;10.994;2023-08-06T02:16:41;97568.59;;;14.31;100.00
29907;BME280;16776;50.958;10.994;2023-08-06T02:19:07;97567.75;;;14.30;100.00
29907;BME280;16776;50.958;10.994;2023-08-06T02:21:34;97556.66;;;14.28;100.00
29907;BME280;16776;50.958;10.994;2023-08-06T02:24:01;97543.91;;;14.25;100.00
29907;BME280;16776;50.958;10.994;2023-08-06T02:26:27;97548.31;;;14.23;100.00
29907;BME280;16776;50.958;10.994;2023-08-06T02:28:56;97550.16;;;14.21;100.00
29907;BME280;16776;50.958;10.994;2023-08-06T02:31:24;97546.72;;;14.20;100.00
29907;BME280;16776;50.958;10.994;2023-08-06T02:33:50;97544.41;;;14.16;100.00
29907;BME280;16776;50.958;10.994;2023-08-06T02:36:19;97542.84;;;14.13;100.00
29907;BME280;16776;50.958;10.994;2023-08-06T02:38:45;97542.19;;;14.10;100.00
29907;BME280;16776;50.958;10.994;2023-08-06T02:41:12;97521.56;;;14.08;100.00
29907;BME280;16776;50.958;10.994;2023-08-06T02:43:38;97532.09;;;14.05;100.00
29907;BME280;16776;50.958;10.994;2023-08-06T02:46:05;97531.44;;;14.02;100.00
29907;BME280;16776;50.958;10.994;2023-08-06T02:48:33;97540.16;;;14.01;100.00
29907;BME280;16776;50.958;10.994;2023-08-06T02:51:00;97544.00;;;13.94;100.00
29907;BME280;16776;50.958;10.994;2023-08-06T02:53:26;97546.69;;;13.92;100.00
29907;BME280;16776;50.958;10.994;2023-08-06T02:55:53;97537.31;;;13.90;100.00
29907;BME280;16776;50.958;10.994;2023-08-06T02:58:19;97525.50;;;13.86;100.00
29907;BME280;16776;50.958;10.994;2023-08-06T03:00:59;97530.16;;;13.95;100.00
29907;BME280;16776;50.958;10.994;2023-08-06T03:03:25;97526.59;;;13.81;100.00
29907;BME280;16776;50.958;10.994;2023-08-06T03:05:53;97529.91;;;13.83;100.00
29907;BME280;16776;50.958;10.994;2023-08-06T03:08:20;97521.78;;;13.75;100.00
29907;BME280;16776;50.958;10.994;2023-08-06T03:10:47;97515.75;;;13.75;100.00
29907;BME280;16776;50.958;10.994;2023-08-06T03:13:14;97508.16;;;13.72;100.00
29907;BME280;16776;50.958;10.994;2023-08-06T03:15:41;97506.56;;;13.69;100.00
29907;BME280;16776;50.958;10.994;2023-08-06T03:18:07;97510.19;;;13.67;100.00
29907;BME280;16776;50.958;10.994;2023-08-06T03:20:34;97500.59;;;13.53;100.00
29907;BME280;16776;50.958;10.994;2023-08-06T03:23:02;97508.59;;;13.64;100.00
29907;BME280;16776;50.958;10.994;2023-08-06T03:25:28;97498.50;;;13.60;100.00
29907;BME280;16776;50.958;10.994;2023-08-06T03:27:55;97494.34;;;13.57;100.00
29907;BME280;16776;50.958;10.994;2023-08-06T03:30:21;97500.47;;;13.56;100.00
29907;BME280;16776;50.958;10.994;2023-08-06T03:32:53;97498.59;;;13.58;100.00
29907;BME280;16776;50.958;10.994;2023-08-06T03:35:19;97501.41;;;13.54;100.00
29907;BME280;16776;50.958;10.994;2023-08-06T03:37:46;97502.34;;;13.53;100.00
29907;BME280;16776;50.958;10.994;2023-08-06T03:40:15;97503.03;;;13.56;100.00
29907;BME280;16776;50.958;10.994;2023-08-06T03:42:41;97508.25;;;13.55;100.00
29907;BME280;16776;50.958;10.994;2023-08-06T03:45:09;97508.09;;;13.58;100.00
29907;BME280;16776;50.958;10.994;2023-08-06T03:47:35;97507.19;;;13.59;100.00
29907;BME280;16776;50.958;10.994;2023-08-06T03:50:02;97510.63;;;13.59;100.00
29907;BME280;16776;50.958;10.994;2023-08-06T03:52:29;97497.69;;;13.59;100.00
29907;BME280;16776;50.958;10.994;2023-08-06T03:54:56;97502.78;;;13.61;100.00
29907;BME280;16776;50.958;10.994;2023-08-06T03:57:27;97500.91;;;13.63;100.00
29907;BME280;16776;50.958;10.994;2023-08-06T03:59:53;97502.78;;;13.61;100.00
29907;BME280;16776;50.958;10.994;2023-08-06T04:02:20;97496.75;;;13.60;100.00
29907;BME280;16776;50.958;10.994;2023-08-06T04:04:46;97503.63;;;13.61;100.00
29907;BME280;16776;50.958;10.994;2023-08-06T04:07:13;97496.69;;;13.62;100.00
29907;BME280;16776;50.958;10.994;2023-08-06T04:09:53;97496.97;;;13.71;100.00
29907;BME280;16776;50.958;10.994;2023-08-06T04:12:20;97498.44;;;13.61;100.00
29907;BME280;16776;50.958;10.994;2023-08-06T04:14:47;97500.91;;;13.63;100.00
29907;BME280;16776;50.958;10.994;2023-08-06T04:17:14;97496.00;;;13.58;100.00
29907;BME280;16776;50.958;10.994;2023-08-06T04:19:41;97495.09;;;13.59;100.00
29907;BME280;16776;50.958;10.994;2023-08-06T04:22:07;97493.41;;;13.58;100.00
29907;BME280;16776;50.958;10.994;2023-08-06T04:24:34;97497.69;;;13.59;100.00
29907;BME280;16776;50.958;10.994;2023-08-06T04:27:00;97493.34;;;13.60;100.00
29907;BME280;16776;50.958;10.994;2023-08-06T04:29:27;97494.19;;;13.60;100.00
29907;BME280;16776;50.958;10.994;2023-08-06T04:31:56;97488.81;;;13.63;100.00
29907;BME280;16776;50.958;10.994;2023-08-06T04:34:23;97482.91;;;13.61;100.00
29907;BME280;16776;50.958;10.994;2023-08-06T04:36:49;97487.91;;;13.64;100.00
29907;BME280;16776;50.958;10.994;2023-08-06T04:39:16;97492.91;;;13.67;100.00
29907;BME280;16776;50.958;10.994;2023-08-06T04:41:42;97488.47;;;13.69;100.00
29907;BME280;16776;50.958;10.994;2023-08-06T04:44:09;97487.47;;;13.72;100.00
29907;BME280;16776;50.958;10.994;2023-08-06T04:46:36;97483.13;;;13.72;100.00
29907;BME280;16776;50.958;10.994;2023-08-06T04:49:04;97483.59;;;13.79;100.00
29907;BME280;16776;50.958;10.994;2023-08-06T04:51:31;97475.75;;;13.80;100.00
29907;BME280;16776;50.958;10.994;2023-08-06T04:54:03;97476.47;;;13.82;100.00
29907;BME280;16776;50.958;10.994;2023-08-06T04:56:29;97477.16;;;13.86;100.00
29907;BME280;16776;50.958;10.994;2023-08-06T04:58:57;97471.91;;;13.88;100.00
29907;BME280;16776;50.958;10.994;2023-08-06T05:01:24;97473.53;;;13.89;100.00
29907;BME280;16776;50.958;10.994;2023-08-06T05:03:50;97470.03;;;13.90;100.00
29907;BME280;16776;50.958;10.994;2023-08-06T05:06:18;97472.38;;;13.94;100.00
29907;BME280;16776;50.958;10.994;2023-08-06T05:08:45;97476.72;;;13.94;100.00
29907;BME280;16776;50.958;10.994;2023-08-06T05:11:11;97468.03;;;13.95;100.00
29907;BME280;16776;50.958;10.994;2023-08-06T05:13:39;97475.78;;;13.95;100.00
29907;BME280;16776;50.958;10.994;2023-08-06T05:16:06;97462.94;;;13.93;100.00
29907;BME280;16776;50.958;10.994;2023-08-06T05:18:32;97461.19;;;13.94;100.00
29907;BME280;16776;50.958;10.994;2023-08-06T05:21:00;97463.78;;;13.94;100.00
29907;BME280;16776;50.958;10.994;2023-08-06T05:23:27;97464.50;;;13.96;100.00
29907;BME280;16776;50.958;10.994;2023-08-06T05:25:55;97465.44;;;13.95;100.00
29907;BME280;16776;50.958;10.994;2023-08-06T05:28:22;97459.50;;;13.93;100.00
29907;BME280;16776;50.958;10.994;2023-08-06T05:30:48;97459.44;;;13.94;100.00
29907;BME280;16776;50.958;10.994;2023-08-06T05:33:15;97460.06;;;13.98;100.00
29907;BME280;16776;50.958;10.994;2023-08-06T05:35:42;97464.41;;;13.97;100.00
29907;BME280;16776;50.958;10.994;2023-08-06T05:38:08;97455.81;;;13.97;100.00
29907;BME280;16776;50.958;10.994;2023-08-06T05:40:36;97460.00;;;13.99;100.00
29907;BME280;16776;50.958;10.994;2023-08-06T05:43:03;97447.31;;;13.95;100.00
29907;BME280;16776;50.958;10.994;2023-08-06T05:45:29;97451.66;;;13.94;100.00
29907;BME280;16776;50.958;10.994;2023-08-06T05:47:56;97449.16;;;13.93;100.00
29907;BME280;16776;50.958;10.994;2023-08-06T05:50:23;97452.59;;;13.93;100.00
29907;BME280;16776;50.958;10.994;2023-08-06T05:52:50;97449.16;;;13.93;100.00
29907;BME280;16776;50.958;10.994;2023-08-06T05:55:17;97449.16;;;13.93;100.00
29907;BME280;16776;50.958;10.994;2023-08-06T05:57:48;97454.13;;;13.96;100.00
29907;BME280;16776;50.958;10.994;2023-08-06T06:00:14;97459.44;;;13.94;100.00
29907;BME280;16776;50.958;10.994;2023-08-06T06:02:41;97461.00;;;13.97;100.00
29907;BME280;16776;50.958;10.994;2023-08-06T06:05:08;97463.50;;;13.98;100.00
29907;BME280;16776;50.958;10.994;2023-08-06T06:07:34;97462.50;;;14.01;100.00
29907;BME280;16776;50.958;10.994;2023-08-06T06:10:01;97459.63;;;14.05;100.00
29907;BME280;16776;50.958;10.994;2023-08-06T06:12:28;97459.44;;;14.08;100.00
29907;BME280;16776;50.958;10.994;2023-08-06T06:14:59;97448.44;;;14.19;100.00
29907;BME280;16776;50.958;10.994;2023-08-06T06:17:26;97450.47;;;14.14;100.00
29907;BME280;16776;50.958;10.994;2023-08-06T06:19:52;97447.63;;;14.18;100.00
29907;BME280;16776;50.958;10.994;2023-08-06T06:22:19;97449.16;;;14.21;100.00
29907;BME280;16776;50.958;10.994;2023-08-06T06:24:45;97449.00;;;14.24;100.00
29907;BME280;16776;50.958;10.994;2023-08-06T06:27:18;97438.81;;;14.35;100.00
29907;BME280;16776;50.958;10.994;2023-08-06T06:29:44;97441.50;;;14.34;100.00
29907;BME280;16776;50.958;10.994;2023-08-06T06:32:12;97440.19;;;14.41;100.00
29907;BME280;16776;50.958;10.994;2023-08-06T06:34:39;97441.69;;;14.45;100.00
29907;BME280;16776;50.958;10.994;2023-08-06T06:37:05;97434.41;;;14.51;100.00
29907;BME280;16776;50.958;10.994;2023-08-06T06:39:32;97441.81;;;14.57;100.00
29907;BME280;16776;50.958;10.994;2023-08-06T06:41:59;97432.72;;;14.65;100.00
29907;BME280;16776;50.958;10.994;2023-08-06T06:44:25;97423.44;;;14.75;100.00
29907;BME280;16776;50.958;10.994;2023-08-06T06:46:52;97421.75;;;14.88;100.00
29907;BME280;16776;50.958;10.994;2023-08-06T06:49:20;97418.28;;;15.01;100.00
29907;BME280;16776;50.958;10.994;2023-08-06T06:51:46;97426.19;;;15.13;100.00
29907;BME280;16776;50.958;10.994;2023-08-06T06:54:13;97427.81;;;15.28;100.00
29907;BME280;16776;50.958;10.994;2023-08-06T06:56:40;97422.69;;;15.40;100.00
29907;BME280;16776;50.958;10.994;2023-08-06T06:59:06;97421.66;;;15.56;100.00
29907;BME280;16776;50.958;10.994;2023-08-06T07:01:33;97418.16;;;15.69;100.00
29907;BME280;16776;50.958;10.994;2023-08-06T07:03:59;97416.50;;;15.81;100.00
29907;BME280;16776;50.958;10.994;2023-08-06T07:06:31;97421.09;;;15.90;100.00
29907;BME280;16776;50.958;10.994;2023-08-06T07:08:58;97422.44;;;15.96;100.00
29907;BME280;16776;50.958;10.994;2023-08-06T07:11:24;97426.47;;;16.00;100.00
29907;BME280;16776;50.958;10.994;2023-08-06T07:13:56;97425.03;;;16.08;100.00
29907;BME280;16776;50.958;10.994;2023-08-06T07:16:22;97418.38;;;16.04;100.00
29907;BME280;16776;50.958;10.994;2023-08-06T07:18:51;97417.47;;;16.05;100.00
29907;BME280;16776;50.958;10.994;2023-08-06T07:21:17;97418.59;;;16.01;100.00
29907;BME280;16776;50.958;10.994;2023-08-06T07:23:45;97419.22;;;16.05;100.00
29907;BME280;16776;50.958;10.994;2023-08-06T07:26:15;97417.66;;;16.02;100.00
29907;BME280;16776;50.958;10.994;2023-08-06T07:28:41;97411.53;;;16.03;100.00
29907;BME280;16776;50.958;10.994;2023-08-06T07:31:08;97415.56;;;16.07;100.00
29907;BME280;16776;50.958;10.994;2023-08-06T07:33:34;97410.78;;;16.14;100.00
29907;BME280;16776;50.958;10.994;2023-08-06T07:36:07;97405.41;;;16.30;100.00
29907;BME280;16776;50.958;10.994;2023-08-06T07:38:34;97410.38;;;16.33;100.00
29907;BME280;16776;50.958;10.994;2023-08-06T07:41:05;97410.16;;;16.48;100.00
29907;BME280;16776;50.958;10.994;2023-08-06T07:43:31;97411.16;;;16.58;100.00
29907;BME280;16776;50.958;10.994;2023-08-06T07:45:58;97407.59;;;16.72;100.00
29907;BME280;16776;50.958;10.994;2023-08-06T07:48:25;97406.72;;;16.84;100.00
29907;BME280;16776;50.958;10.994;2023-08-06T07:50:52;97402.44;;;16.96;100.00
29907;BME280;16776;50.958;10.994;2023-08-06T07:53:19;97406.78;;;17.08;100.00
29907;BME280;16776;50.958;10.994;2023-08-06T07:55:49;97404.81;;;17.23;100.00
29907;BME280;16776;50.958;10.994;2023-08-06T07:58:17;97405.91;;;17.31;100.00
29907;BME280;16776;50.958;10.994;2023-08-06T08:00:43;97404.44;;;17.40;100.00
29907;BME280;16776;50.958;10.994;2023-08-06T08:03:11;97401.97;;;17.50;100.00
29907;BME280;16776;50.958;10.994;2023-08-06T08:05:40;97400.22;;;17.61;100.00
29907;BME280;16776;50.958;10.994;2023-08-06T08:08:06;97389.72;;;17.74;100.00
29907;BME280;16776;50.958;10.994;2023-08-06T08:10:33;97385.63;;;17.83;100.00
29907;BME280;16776;50.958;10.994;2023-08-06T08:13:00;97391.78;;;17.93;100.00
29907;BME280;16776;50.958;10.994;2023-08-06T08:15:28;97371.44;;;17.98;100.00
29907;BME280;16776;50.958;10.994;2023-08-06T08:17:55;97383.50;;;18.10;100.00
29907;BME280;16776;50.958;10.994;2023-08-06T08:20:22;97386.34;;;18.18;100.00
29907;BME280;16776;50.958;10.994;2023-08-06T08:22:51;97375.44;;;18.24;100.00
29907;BME280;16776;50.958;10.994;2023-08-06T08:25:18;97371.66;;;18.28;100.00
29907;BME280;16776;50.958;10.994;2023-08-06T08:27:45;97378.16;;;18.34;100.00
29907;BME280;16776;50.958;10.994;2023-08-06T08:30:11;97371.66;;;18.39;100.00
29907;BME280;16776;50.958;10.994;2023-08-06T08:32:39;97371.66;;;18.50;100.00
29907;BME280;16776;50.958;10.994;2023-08-06T08:35:06;97370.94;;;18.60;100.00
29907;BME280;16776;50.958;10.994;2023-08-06T08:37:33;97363.91;;;18.71;100.00
29907;BME280;16776;50.958;10.994;2023-08-06T08:40:00;97359.50;;;18.83;100.00
29907;BME280;16776;50.958;10.994;2023-08-06T08:42:27;97354.38;;;18.92;100.00
29907;BME280;16776;50.958;10.994;2023-08-06T08:44:56;97352.28;;;19.07;100.00
29907;BME280;16776;50.958;10.994;2023-08-06T08:47:24;97358.44;;;19.17;100.00
29907;BME280;16776;50.958;10.994;2023-08-06T08:49:54;97351.72;;;19.35;100.00
29907;BME280;16776;50.958;10.994;2023-08-06T08:52:25;97349.47;;;19.52;100.00
29907;BME280;16776;50.958;10.994;2023-08-06T08:54:56;97349.16;;;19.66;100.00
29907;BME280;16776;50.958;10.994;2023-08-06T08:57:22;97340.03;;;19.81;100.00
29907;BME280;16776;50.958;10.994;2023-08-06T08:59:50;97342.19;;;19.97;100.00
29907;BME280;16776;50.958;10.994;2023-08-06T09:02:16;97345.56;;;20.08;100.00
29907;BME280;16776;50.958;10.994;2023-08-06T09:04:44;97342.84;;;20.20;100.00
29907;BME280;16776;50.958;10.994;2023-08-06T09:07:18;97346.25;;;20.41;100.00
29907;BME280;16776;50.958;10.994;2023-08-06T09:09:47;97341.34;;;20.57;100.00
29907;BME280;16776;50.958;10.994;2023-08-06T09:12:16;97339.72;;;20.75;100.00
29907;BME280;16776;50.958;10.994;2023-08-06T09:14:43;97335.03;;;20.88;100.00
29907;BME280;16776;50.958;10.994;2023-08-06T09:17:10;97337.25;;;21.03;100.00
29907;BME280;16776;50.958;10.994;2023-08-06T09:19:39;97341.94;;;21.09;100.00
29907;BME280;16776;50.958;10.994;2023-08-06T09:22:11;97330.38;;;21.02;100.00
29907;BME280;16776;50.958;10.994;2023-08-06T09:24:41;97343.44;;;21.02;100.00
29907;BME280;16776;50.958;10.994;2023-08-06T09:27:11;97340.44;;;20.97;100.00
29907;BME280;16776;50.958;10.994;2023-08-06T09:29:40;97340.81;;;20.82;100.00
29907;BME280;16776;50.958;10.994;2023-08-06T09:32:08;97337.63;;;20.69;100.00
29907;BME280;16776;50.958;10.994;2023-08-06T09:34:34;97340.47;;;20.56;100.00
29907;BME280;16776;50.958;10.994;2023-08-06T09:37:03;97324.63;;;20.48;100.00
29907;BME280;16776;50.958;10.994;2023-08-06T09:39:31;97318.97;;;20.34;100.00
29907;BME280;16776;50.958;10.994;2023-08-06T09:42:00;97310.13;;;20.25;100.00
29907;BME280;16776;50.958;10.994;2023-08-06T09:44:30;97311.66;;;20.28;100.00
29907;BME280;16776;50.958;10.994;2023-08-06T09:46:59;97316.91;;;20.37;100.00
29907;BME280;16776;50.958;10.994;2023-08-06T09:49:27;97326.03;;;20.52;100.00
29907;BME280;16776;50.958;10.994;2023-08-06T09:51:54;97316.16;;;20.66;100.00
29907;BME280;16776;50.958;10.994;2023-08-06T09:54:23;97321.13;;;20.88;100.00
29907;BME280;16776;50.958;10.994;2023-08-06T09:56:52;97319.63;;;21.05;100.00
29907;BME280;16776;50.958;10.994;2023-08-06T09:59:20;97313.94;;;21.19;100.00
29907;BME280;16776;50.958;10.994;2023-08-06T10:01:48;97314.13;;;21.27;100.00
29907;BME280;16776;50.958;10.994;2023-08-06T10:04:15;97303.09;;;21.33;100.00
29907;BME280;16776;50.958;10.994;2023-08-06T10:06:47;97299.63;;;21.42;100.00
29907;BME280;16776;50.958;10.994;2023-08-06T10:09:14;97292.88;;;21.49;100.00
29907;BME280;16776;50.958;10.994;2023-08-06T10:11:42;97293.91;;;21.66;100.00
29907;BME280;16776;50.958;10.994;2023-08-06T10:14:16;97289.44;;;21.86;100.00
29907;BME280;16776;50.958;10.994;2023-08-06T10:16:47;97293.28;;;22.01;100.00
29907;BME280;16776;50.958;10.994;2023-08-06T10:19:15;97287.53;;;22.15;100.00
29907;BME280;16776;50.958;10.994;2023-08-06T10:22:08;97275.00;;;22.36;100.00
29907;BME280;16776;50.958;10.994;2023-08-06T10:24:46;97267.13;;;22.36;100.00
29907;BME280;16776;50.958;10.994;2023-08-06T10:27:13;97266.00;;;22.39;100.00
29907;BME280;16776;50.958;10.994;2023-08-06T10:29:39;97262.63;;;22.46;100.00
29907;BME280;16776;50.958;10.994;2023-08-06T10:32:07;97262.88;;;22.53;100.00
29907;BME280;16776;50.958;10.994;2023-08-06T10:34:53;97260.06;;;22.64;100.00
29907;BME280;16776;50.958;10.994;2023-08-06T10:37:20;97260.53;;;22.50;100.00
29907;BME280;16776;50.958;10.994;2023-08-06T10:39:48;97262.34;;;22.49;100.00
29907;BME280;16776;50.958;10.994;2023-08-06T10:42:20;97260.53;;;22.50;100.00
29907;BME280;16776;50.958;10.994;2023-08-06T10:45:11;97258.47;;;22.53;100.00
29907;BME280;16776;50.958;10.994;2023-08-06T10:47:42;97256.03;;;22.42;100.00
29907;BME280;16776;50.958;10.994;2023-08-06T10:50:12;97252.34;;;22.35;100.00
29907;BME280;16776;50.958;10.994;2023-08-06T10:52:39;97254.88;;;22.27;100.00
29907;BME280;16776;50.958;10.994;2023-08-06T10:55:06;97247.31;;;22.24;100.00
29907;BME280;16776;50.958;10.994;2023-08-06T10:57:33;97235.63;;;22.19;100.00
29907;BME280;16776;50.958;10.994;2023-08-06T10:59:59;97243.13;;;22.13;100.00
29907;BME280;16776;50.958;10.994;2023-08-06T11:02:26;97237.31;;;22.10;100.00
29907;BME280;16776;50.958;10.994;2023-08-06T11:04:54;97230.28;;;22.10;100.00
29907;BME280;16776;50.958;10.994;2023-08-06T11:07:20;97238.88;;;22.03;100.00
29907;BME280;16776;50.958;10.994;2023-08-06T11:09:50;97226.34;;;21.97;100.00
29907;BME280;16776;50.958;10.994;2023-08-06T11:12:18;97218.13;;;21.92;100.00
29907;BME280;16776;50.958;10.994;2023-08-06T11:14:49;97217.91;;;22.03;100.00
29907;BME280;16776;50.958;10.994;2023-08-06T11:17:16;97216.25;;;22.02;100.00
29907;BME280;16776;50.958;10.994;2023-08-06T11:19:43;97226.97;;;22.08;100.00
29907;BME280;16776;50.958;10.994;2023-08-06T11:22:12;97224.31;;;22.18;100.00
29907;BME280;16776;50.958;10.994;2023-08-06T11:24:38;97222.50;;;22.19;99.29
29907;BME280;16776;50.958;10.994;2023-08-06T11:27:11;97216.13;;;22.21;99.25
29907;BME280;16776;50.958;10.994;2023-08-06T11:29:40;97210.41;;;22.08;99.54
29907;BME280;16776;50.958;10.994;2023-08-06T11:32:07;97216.25;;;22.02;99.93
29907;BME280;16776;50.958;10.994;2023-08-06T11:34:34;97208.97;;;21.96;99.52
29907;BME280;16776;50.958;10.994;2023-08-06T11:37:03;97206.09;;;21.89;99.92
29907;BME280;16776;50.958;10.994;2023-08-06T11:39:32;97210.53;;;21.89;100.00
29907;BME280;16776;50.958;10.994;2023-08-06T11:41:59;97210.13;;;21.84;99.50
29907;BME280;16776;50.958;10.994;2023-08-06T11:44:29;97201.88;;;21.79;99.13
29907;BME280;16776;50.958;10.994;2023-08-06T11:46:56;97200.22;;;21.78;99.58
29907;BME280;16776;50.958;10.994;2023-08-06T11:49:38;97206.94;;;21.90;98.59
29907;BME280;16776;50.958;10.994;2023-08-06T11:52:12;97205.97;;;21.91;100.00
29907;BME280;16776;50.958;10.994;2023-08-06T11:55:02;97204.88;;;21.93;99.00
29907;BME280;16776;50.958;10.994;2023-08-06T11:57:31;97205.00;;;21.82;98.14
29907;BME280;16776;50.958;10.994;2023-08-06T12:00:02;97206.97;;;21.80;97.76
29907;BME280;16776;50.958;10.994;2023-08-06T12:02:32;97200.66;;;21.73;97.26
29907;BME280;16776;50.958;10.994;2023-08-06T12:05:03;97193.59;;;21.46;97.44
29907;BME280;16776;50.958;10.994;2023-08-06T12:07:37;97212.75;;;21.47;97.82
29907;BME280;16776;50.958;10.994;2023-08-06T12:10:06;97216.66;;;21.33;97.73
29907;BME280;16776;50.958;10.994;2023-08-06T12:12:33;97225.94;;;21.18;98.45
29907;BME280;16776;50.958;10.994;2023-08-06T12:15:03;97228.97;;;21.04;99.39
29907;BME280;16776;50.958;10.994;2023-08-06T12:17:31;97234.63;;;20.89;99.72
29907;BME280;16776;50.958;10.994;2023-08-06T12:19:58;97233.41;;;20.74;100.00
29907;BME280;16776;50.958;10.994;2023-08-06T12:22:25;97238.38;;;20.58;100.00
29907;BME280;16776;50.958;10.994;2023-08-06T12:24:51;97236.25;;;20.42;100.00
29907;BME280;16776;50.958;10.994;2023-08-06T12:27:19;97232.94;;;20.31;100.00
29907;BME280;16776;50.958;10.994;2023-08-06T12:29:48;97230.44;;;20.20;100.00
29907;BME280;16776;50.958;10.994;2023-08-06T12:32:17;97235.34;;;20.03;100.00
29907;BME280;16776;50.958;10.994;2023-08-06T12:34:44;97225.00;;;19.92;100.00
29907;BME280;16776;50.958;10.994;2023-08-06T12:37:12;97224.56;;;19.87;100.00
29907;BME280;16776;50.958;10.994;2023-08-06T12:39:39;97233.75;;;19.82;100.00
29907;BME280;16776;50.958;10.994;2023-08-06T12:42:05;97224.41;;;19.79;100.00
29907;BME280;16776;50.958;10.994;2023-08-06T12:44:33;97228.66;;;19.80;100.00